Time;durP1;ratioP1;P1;durP2;ratioP2;P2;SDS_P1;SDS_P2;PMS_P1;PMS_P2;Temp;Humidity;BMP_temperature;BMP_pressure;BME280_temperature;BME280_humidity;BME280_pressure;Samples;Min_cycle;Max_cycle;Signal;HPM_P1;HPM_P2
2023/08/24 00:01:37;;;;;;;43.15;26.25;;;28.20;82.20;;;;;;5094218;28;20392;-69
2023/08/24 00:04:41;;;;;;;43.10;26.05;;;28.10;82.50;;;;;;5094118;28;20043;-69
2023/08/24 00:07:47;;;;;;;39.95;25.52;;;28.00;82.80;;;;;;5093949;28;20039;-69
2023/08/24 00:10:52;;;;;;;35.38;25.38;;;28.00;82.70;;;;;;5093723;28;20526;-69
2023/08/24 00:13:56;;;;;;;37.33;25.48;;;27.90;83.00;;;;;;5093755;28;20059;-69
2023/08/24 00:17:00;;;;;;;34.60;25.08;;;27.90;83.30;;;;;;5093720;28;20039;-69
2023/08/24 00:20:07;;;;;;;36.45;26.08;;;27.90;83.20;;;;;;5093494;28;20051;-69
2023/08/24 00:23:11;;;;;;;45.40;25.73;;;27.90;82.90;;;;;;5093159;28;20431;-69
2023/08/24 00:26:16;;;;;;;34.92;25.63;;;27.90;82.90;;;;;;5093265;28;20423;-69
2023/08/24 00:29:21;;;;;;;33.80;25.92;;;28.00;82.80;;;;;;5093552;28;20511;-69
2023/08/24 00:32:27;;;;;;;34.72;25.10;;;28.00;82.80;;;;;;5092347;28;20074;-69
2023/08/24 00:35:31;;;;;;;32.20;26.05;;;28.00;82.70;;;;;;5093415;28;20047;-69
2023/08/24 00:38:36;;;;;;;33.60;27.67;;;27.90;83.00;;;;;;5092547;28;20047;-69
2023/08/24 00:41:41;;;;;;;40.47;27.58;;;27.70;83.60;;;;;;5093129;28;20498;-69
2023/08/24 00:44:45;;;;;;;36.78;25.10;;;27.70;83.80;;;;;;5080325;28;20047;-69
2023/08/24 00:47:51;;;;;;;39.72;26.55;;;27.60;84.20;;;;;;5093196;28;20510;-69
2023/08/24 00:50:58;;;;;;;36.30;24.95;;;27.60;84.00;;;;;;5093320;28;20047;-69
2023/08/24 00:54:03;;;;;;;36.80;25.67;;;27.60;83.90;;;;;;5091892;28;20054;-69
2023/08/24 00:57:07;;;;;;;37.63;25.85;;;27.60;84.20;;;;;;5092192;28;20126;-69
2023/08/24 01:00:11;;;;;;;34.35;26.90;;;27.70;83.80;;;;;;5091998;28;20043;-69
2023/08/24 01:03:15;;;;;;;34.83;25.00;;;27.50;83.50;;;;;;5092684;28;20047;-69
2023/08/24 01:06:21;;;;;;;38.30;26.05;;;27.50;83.60;;;;;;5091825;28;20047;-69
2023/08/24 01:09:24;;;;;;;40.50;24.83;;;27.50;83.50;;;;;;5092908;28;20047;-69
2023/08/24 01:12:32;;;;;;;36.42;25.45;;;27.70;83.60;;;;;;5091676;28;20537;-69
2023/08/24 01:15:51;;;;;;;33.92;25.60;;;27.70;83.70;;;;;;5092483;28;20051;-69
2023/08/24 01:18:57;;;;;;;34.35;26.33;;;27.80;83.20;;;;;;5092713;28;20181;-69
2023/08/24 01:22:05;;;;;;;42.20;25.90;;;27.80;82.80;;;;;;5091972;28;20039;-69
2023/08/24 01:25:09;;;;;;;41.10;27.05;;;27.80;83.30;;;;;;5092764;28;20047;-69
2023/08/24 01:28:14;;;;;;;41.88;26.35;;;27.90;82.80;;;;;;5092370;28;20043;-69
2023/08/24 01:31:18;;;;;;;37.22;25.58;;;27.80;82.90;;;;;;5091367;28;20043;-69
2023/08/24 01:34:22;;;;;;;36.78;26.08;;;27.80;83.00;;;;;;5092099;28;20047;-69
2023/08/24 01:37:29;;;;;;;36.83;24.77;;;27.70;83.00;;;;;;5091967;28;20044;-70
2023/08/24 01:40:49;;;;;;;44.50;27.38;;;27.70;83.40;;;;;;5091607;28;20051;-69
2023/08/24 01:43:55;;;;;;;36.17;27.50;;;27.70;83.40;;;;;;5091879;28;20047;-69
2023/08/24 01:47:04;;;;;;;42.22;28.30;;;27.40;84.20;;;;;;5092017;28;20392;-69
2023/08/24 01:50:09;;;;;;;36.75;27.95;;;27.40;84.30;;;;;;5092020;28;20039;-69
2023/08/24 01:53:13;;;;;;;36.40;28.73;;;27.30;84.20;;;;;;5091293;28;20415;-69
2023/08/24 01:56:20;;;;;;;40.88;30.45;;;27.20;84.40;;;;;;5090784;28;20419;-69
2023/08/24 01:59:24;;;;;;;34.58;29.45;;;27.20;84.90;;;;;;5090911;28;20035;-69
2023/08/24 02:02:28;;;;;;;41.97;28.98;;;27.10;84.80;;;;;;5090750;28;20059;-69
2023/08/24 02:05:32;;;;;;;41.53;28.38;;;27.10;84.80;;;;;;5090633;28;20102;-69
2023/08/24 02:08:36;;;;;;;39.17;27.27;;;27.20;84.20;;;;;;5091121;28;20051;-69
2023/08/24 02:11:40;;;;;;;34.22;25.95;;;27.20;83.90;;;;;;5091476;28;20043;-69
2023/08/24 02:14:44;;;;;;;37.78;25.05;;;27.10;84.10;;;;;;5090485;28;20051;-69
2023/08/24 02:17:48;;;;;;;37.90;25.73;;;27.10;84.00;;;;;;5091465;28;20039;-69
2023/08/24 02:20:52;;;;;;;37.72;25.17;;;27.00;84.40;;;;;;5091620;28;20039;-69
2023/08/24 02:23:56;;;;;;;32.95;25.00;;;27.00;84.70;;;;;;5091544;28;20055;-69
2023/08/24 02:27:00;;;;;;;34.10;25.90;;;27.00;84.10;;;;;;5091260;28;20039;-69
2023/08/24 02:30:05;;;;;;;39.67;25.98;;;27.00;84.10;;;;;;5091524;28;20066;-69
2023/08/24 02:33:09;;;;;;;32.88;25.05;;;27.00;84.20;;;;;;5091233;28;20055;-69
2023/08/24 02:36:16;;;;;;;38.33;24.83;;;27.00;84.10;;;;;;5091325;28;20047;-69
2023/08/24 02:39:21;;;;;;;34.45;25.20;;;27.00;84.40;;;;;;5090525;28;20381;-69
2023/08/24 02:42:26;;;;;;;32.45;25.38;;;27.00;84.50;;;;;;5091266;28;20040;-69
2023/08/24 02:45:31;;;;;;;30.45;23.38;;;26.90;84.60;;;;;;5091165;28;20051;-69
2023/08/24 02:48:36;;;;;;;37.42;23.55;;;26.60;85.40;;;;;;5091514;28;20059;-69
2023/08/24 02:51:40;;;;;;;32.55;24.17;;;26.60;85.60;;;;;;5091433;28;20039;-69
2023/08/24 02:54:44;;;;;;;30.63;23.38;;;26.50;85.30;;;;;;5091526;28;20506;-69
2023/08/24 02:57:48;;;;;;;36.55;23.88;;;26.50;85.60;;;;;;5091204;28;20036;-69
2023/08/24 03:00:53;;;;;;;32.35;22.90;;;26.50;85.40;;;;;;5090076;28;20051;-69
2023/08/24 03:03:57;;;;;;;28.00;23.13;;;26.60;85.40;;;;;;5090895;28;20047;-69
2023/08/24 03:07:02;;;;;;;25.20;22.00;;;26.60;85.50;;;;;;5090102;28;20047;-69
2023/08/24 03:10:08;;;;;;;32.78;22.88;;;26.50;85.40;;;;;;5095233;28;20520;-69
2023/08/24 03:13:13;;;;;;;28.00;21.88;;;26.50;85.70;;;;;;5095062;28;20486;-69
2023/08/24 03:16:18;;;;;;;31.33;23.30;;;26.50;85.50;;;;;;5094189;28;20106;-69
2023/08/24 03:19:25;;;;;;;27.85;21.23;;;26.40;86.20;;;;;;5094177;28;20039;-69
2023/08/24 03:22:28;;;;;;;28.48;20.98;;;26.20;85.80;;;;;;5094122;28;20043;-69
2023/08/24 03:25:37;;;;;;;26.73;21.27;;;26.30;85.60;;;;;;5095084;28;20043;-69
2023/08/24 03:28:41;;;;;;;29.25;20.92;;;26.30;85.70;;;;;;5094135;28;20055;-69
2023/08/24 03:31:45;;;;;;;28.17;22.60;;;26.40;85.50;;;;;;5093750;28;20059;-69
2023/08/24 03:34:49;;;;;;;33.67;23.60;;;26.40;85.60;;;;;;5093751;28;20047;-69
2023/08/24 03:37:54;;;;;;;28.00;21.85;;;26.30;86.00;;;;;;5094101;28;20039;-69
2023/08/24 03:41:05;;;;;;;27.42;21.23;;;26.30;86.40;;;;;;5094850;28;20071;-69
2023/08/24 03:44:09;;;;;;;31.20;20.50;;;26.50;86.20;;;;;;5094759;28;20047;-69
2023/08/24 03:47:13;;;;;;;25.52;20.98;;;26.60;85.80;;;;;;5094437;28;20039;-69
2023/08/24 03:50:17;;;;;;;37.33;20.75;;;26.70;85.50;;;;;;5093905;28;20059;-69
2023/08/24 03:53:22;;;;;;;28.58;20.35;;;26.80;85.00;;;;;;5094500;28;20047;-69
2023/08/24 03:56:27;;;;;;;36.78;21.77;;;26.90;85.20;;;;;;5093494;28;20055;-68
2023/08/24 03:59:31;;;;;;;35.25;20.27;;;26.80;85.30;;;;;;5093218;28;20039;-69
2023/08/24 04:02:34;;;;;;;28.65;21.85;;;26.90;85.30;;;;;;5093207;28;20503;-69
2023/08/24 04:05:39;;;;;;;31.20;21.73;;;26.70;85.10;;;;;;5093203;28;20063;-70
2023/08/24 04:08:43;;;;;;;39.50;22.75;;;26.70;85.20;;;;;;5094133;28;20063;-68
2023/08/24 04:11:47;;;;;;;26.27;21.63;;;26.60;85.50;;;;;;5093459;28;20050;-69
2023/08/24 04:14:52;;;;;;;25.65;22.65;;;26.40;86.20;;;;;;5093289;28;20050;-70
2023/08/24 04:17:57;;;;;;;26.80;23.30;;;26.30;86.50;;;;;;5093369;28;20057;-70
2023/08/24 04:21:01;;;;;;;29.55;22.20;;;26.20;86.50;;;;;;5091795;28;20066;-69
2023/08/24 04:24:05;;;;;;;37.33;23.23;;;26.20;86.80;;;;;;5093732;28;20059;-70
2023/08/24 04:27:09;;;;;;;30.48;22.42;;;26.20;86.70;;;;;;5094812;28;20047;-69
2023/08/24 04:30:13;;;;;;;50.33;23.30;;;26.20;86.70;;;;;;5093993;28;20039;-69
2023/08/24 04:33:18;;;;;;;41.42;23.83;;;26.20;86.80;;;;;;5093406;28;20403;-69
2023/08/24 04:36:22;;;;;;;42.08;22.70;;;26.20;87.10;;;;;;5093355;28;20051;-70
2023/08/24 04:39:26;;;;;;;33.35;23.42;;;26.10;87.20;;;;;;5093779;28;20388;-69
2023/08/24 04:42:30;;;;;;;48.40;24.15;;;26.10;87.40;;;;;;5093949;28;20047;-70
2023/08/24 04:45:34;;;;;;;41.13;23.02;;;26.00;87.70;;;;;;5093774;28;20494;-71
2023/08/24 04:48:38;;;;;;;32.13;23.77;;;26.10;87.60;;;;;;5093789;28;20051;-69
2023/08/24 04:51:42;;;;;;;34.20;23.02;;;26.00;87.40;;;;;;5093416;28;20387;-70
2023/08/24 04:54:46;;;;;;;30.27;23.48;;;26.10;87.50;;;;;;5093481;28;20414;-68
2023/08/24 04:57:50;;;;;;;35.58;23.60;;;26.10;87.10;;;;;;5092626;28;20043;-69
2023/08/24 05:00:55;;;;;;;34.65;22.48;;;26.20;87.50;;;;;;5093523;28;20043;-69
2023/08/24 05:03:59;;;;;;;35.28;22.33;;;26.40;87.50;;;;;;5092912;28;20051;-69
2023/08/24 05:07:03;;;;;;;52.75;22.80;;;26.50;86.90;;;;;;5093102;28;20051;-70
2023/08/24 05:10:07;;;;;;;45.08;22.15;;;26.60;86.50;;;;;;5092966;28;20051;-69
2023/08/24 05:13:11;;;;;;;33.47;22.73;;;26.60;87.00;;;;;;5092785;28;20043;-71
2023/08/24 05:16:15;;;;;;;34.65;23.05;;;26.80;86.40;;;;;;5092404;28;20054;-68
2023/08/24 05:19:19;;;;;;;38.97;22.08;;;26.90;86.40;;;;;;5092532;28;20498;-70
2023/08/24 05:22:23;;;;;;;33.75;21.85;;;27.00;86.40;;;;;;5092704;28;20063;-70
2023/08/24 05:25:27;;;;;;;29.35;21.88;;;27.30;85.50;;;;;;5092245;28;20555;-69
2023/08/24 05:28:31;;;;;;;35.03;20.23;;;27.90;84.20;;;;;;5092498;28;20039;-70
2023/08/24 05:31:35;;;;;;;46.78;21.90;;;28.80;82.00;;;;;;5091812;28;20142;-70
2023/08/24 05:34:39;;;;;;;36.80;20.70;;;29.60;81.00;;;;;;5092267;28;20080;-68
2023/08/24 05:37:42;;;;;;;33.05;20.75;;;30.00;79.10;;;;;;5092491;28;20043;-69
2023/08/24 05:40:48;;;;;;;36.80;20.33;;;30.40;78.50;;;;;;5092176;28;20051;-69
2023/08/24 05:43:52;;;;;;;39.05;18.25;;;30.60;77.90;;;;;;5091341;28;20043;-68
2023/08/24 05:46:57;;;;;;;38.47;19.15;;;30.60;76.70;;;;;;5092070;28;20043;-68
2023/08/24 05:50:01;;;;;;;25.83;14.77;;;30.60;77.40;;;;;;5092165;28;20043;-67
2023/08/24 05:53:05;;;;;;;28.73;16.30;;;30.50;74.70;;;;;;5092227;28;20050;-68
2023/08/24 05:56:09;;;;;;;21.63;15.27;;;30.50;75.80;;;;;;5091936;28;20058;-68
2023/08/24 05:59:14;;;;;;;21.40;14.90;;;30.50;73.80;;;;;;5091902;28;20114;-68
2023/08/24 06:02:18;;;;;;;23.00;14.68;;;30.50;73.70;;;;;;5091779;28;20082;-68
2023/08/24 06:05:22;;;;;;;24.55;13.32;;;30.70;73.90;;;;;;5091708;28;20051;-68
2023/08/24 06:08:26;;;;;;;24.15;13.70;;;30.80;73.40;;;;;;5091801;28;20216;-68
2023/08/24 06:11:30;;;;;;;26.52;15.55;;;30.80;73.20;;;;;;5092082;28;20498;-69
2023/08/24 06:14:34;;;;;;;30.55;17.08;;;30.90;73.10;;;;;;5091696;28;20055;-69
2023/08/24 06:17:38;;;;;;;31.35;15.70;;;31.10;72.90;;;;;;5091659;28;20047;-68
2023/08/24 06:20:42;;;;;;;20.65;14.50;;;31.20;72.80;;;;;;5091652;28;20047;-68
2023/08/24 06:23:47;;;;;;;28.10;15.18;;;31.20;71.80;;;;;;5091578;28;20043;-69
2023/08/24 06:26:51;;;;;;;32.60;15.43;;;31.30;72.30;;;;;;5091467;28;20415;-69
2023/08/24 06:29:55;;;;;;;27.17;15.52;;;31.50;72.60;;;;;;5091589;28;20047;-68
2023/08/24 06:32:59;;;;;;;34.70;18.73;;;31.70;72.30;;;;;;5091293;28;20064;-68
2023/08/24 06:36:07;;;;;;;35.47;19.52;;;32.00;72.30;;;;;;5091409;28;20062;-67
2023/08/24 06:39:12;;;;;;;46.67;21.90;;;32.20;72.80;;;;;;5091362;28;20043;-69
2023/08/24 06:42:17;;;;;;;40.47;21.58;;;32.30;71.90;;;;;;5090192;28;20403;-68
2023/08/24 06:45:21;;;;;;;34.92;19.25;;;32.40;72.10;;;;;;5091140;28;20043;-68
2023/08/24 06:48:25;;;;;;;40.35;21.95;;;32.50;72.00;;;;;;5091137;28;20046;-68
2023/08/24 06:51:29;;;;;;;47.38;21.30;;;32.40;71.70;;;;;;5078592;28;20039;-68
2023/08/24 06:54:33;;;;;;;44.35;19.15;;;32.30;72.20;;;;;;5091002;28;20067;-69
2023/08/24 06:57:37;;;;;;;37.88;18.95;;;32.40;72.50;;;;;;5091241;28;20055;-69
2023/08/24 07:00:41;;;;;;;40.08;19.52;;;32.70;72.20;;;;;;5091048;28;20043;-69
2023/08/24 07:03:45;;;;;;;32.65;19.15;;;32.80;71.60;;;;;;5091141;28;20059;-68
2023/08/24 07:06:51;;;;;;;39.80;20.17;;;33.00;71.10;;;;;;5090780;28;20417;-68
2023/08/24 07:09:55;;;;;;;35.33;19.17;;;32.90;70.90;;;;;;5090795;28;20110;-69
2023/08/24 07:12:59;;;;;;;39.67;19.05;;;32.90;71.30;;;;;;5090801;28;20039;-72
2023/08/24 07:16:03;;;;;;;36.30;18.98;;;33.10;70.80;;;;;;5090860;28;20059;-71
2023/08/24 07:19:10;;;;;;;42.10;18.35;;;33.40;70.40;;;;;;5091177;28;20035;-69
2023/08/24 07:22:14;;;;;;;34.20;18.00;;;33.60;69.80;;;;;;5091695;28;20043;-71
2023/08/24 07:25:20;;;;;;;27.75;17.58;;;33.80;69.00;;;;;;5090994;28;20047;-71
2023/08/24 07:28:24;;;;;;;30.20;17.67;;;33.90;68.40;;;;;;5091406;28;20051;-70
2023/08/24 07:31:28;;;;;;;30.77;19.33;;;34.00;68.10;;;;;;5078546;28;20043;-70
2023/08/24 07:34:32;;;;;;;34.17;19.08;;;33.90;68.40;;;;;;5090683;28;20055;-68
2023/08/24 07:37:36;;;;;;;29.30;17.33;;;33.80;68.30;;;;;;5090804;28;20051;-72
2023/08/24 07:40:40;;;;;;;25.77;16.08;;;33.90;68.80;;;;;;5090647;28;20051;-69
2023/08/24 07:43:44;;;;;;;23.67;16.20;;;34.10;68.20;;;;;;5091092;28;20380;-69
2023/08/24 07:46:49;;;;;;;18.25;14.43;;;34.20;67.80;;;;;;5090898;28;20047;-70
2023/08/24 07:49:53;;;;;;;32.58;15.43;;;34.40;67.30;;;;;;5090759;28;20118;-68
2023/08/24 07:52:57;;;;;;;19.65;15.95;;;34.50;66.50;;;;;;5090981;28;20047;-67
2023/08/24 07:56:02;;;;;;;24.33;16.20;;;34.60;66.50;;;;;;5094305;28;20059;-68
2023/08/24 07:59:06;;;;;;;34.78;17.85;;;34.70;66.60;;;;;;5094114;28;20494;-67
2023/08/24 08:02:10;;;;;;;34.42;17.13;;;34.70;66.50;;;;;;5093681;28;20499;-68
2023/08/24 08:05:14;;;;;;;26.27;16.95;;;34.60;66.30;;;;;;5093502;28;20102;-68
2023/08/24 08:08:18;;;;;;;38.92;19.23;;;34.50;66.90;;;;;;5093301;28;20063;-68
2023/08/24 08:11:22;;;;;;;32.22;19.20;;;34.50;66.90;;;;;;5093707;28;20043;-68
2023/08/24 08:14:26;;;;;;;32.30;18.60;;;34.40;67.50;;;;;;5092751;28;20067;-68
2023/08/24 08:17:30;;;;;;;20.80;15.95;;;34.40;67.90;;;;;;5092290;28;20043;-68
2023/08/24 08:20:34;;;;;;;25.27;15.27;;;34.50;67.60;;;;;;5092292;28;20039;-69
2023/08/24 08:23:38;;;;;;;16.65;14.50;;;34.60;67.30;;;;;;5092103;28;20051;-69
2023/08/24 08:26:42;;;;;;;22.83;16.25;;;34.70;67.00;;;;;;5093022;28;20043;-67
2023/08/24 08:29:47;;;;;;;20.38;15.68;;;34.80;66.90;;;;;;5093310;28;20046;-68
2023/08/24 08:32:52;;;;;;;22.77;16.27;;;34.90;66.60;;;;;;5093258;28;20491;-68
2023/08/24 08:35:56;;;;;;;27.33;16.50;;;34.90;66.40;;;;;;5092574;28;20055;-68
2023/08/24 08:39:00;;;;;;;22.00;17.60;;;35.00;65.50;;;;;;5093683;28;20040;-67
2023/08/24 08:42:04;;;;;;;22.75;16.92;;;34.90;65.70;;;;;;5093475;28;20114;-67
2023/08/24 08:45:09;;;;;;;23.63;17.73;;;34.90;65.70;;;;;;5093360;28;20514;-68
2023/08/24 08:48:13;;;;;;;19.25;16.90;;;35.00;65.90;;;;;;5093557;28;20413;-68
2023/08/24 08:51:17;;;;;;;20.85;15.82;;;35.00;65.50;;;;;;5093394;28;20058;-69
2023/08/24 08:54:22;;;;;;;24.90;17.98;;;35.00;65.30;;;;;;5092928;28;20110;-68
2023/08/24 08:57:25;;;;;;;24.60;17.10;;;35.10;65.40;;;;;;5092987;28;20396;-69
2023/08/24 09:00:31;;;;;;;21.90;16.67;;;35.20;65.00;;;;;;5093188;28;20059;-67
2023/08/24 09:03:36;;;;;;;24.08;15.80;;;35.20;65.00;;;;;;5092537;28;20076;-69
2023/08/24 09:06:40;;;;;;;18.65;15.85;;;35.20;64.00;;;;;;5091905;28;20502;-68
2023/08/24 09:09:44;;;;;;;20.13;15.68;;;35.20;64.10;;;;;;5092929;28;20043;-68
2023/08/24 09:12:48;;;;;;;20.20;13.57;;;35.30;63.80;;;;;;5092768;28;20594;-68
2023/08/24 09:15:55;;;;;;;23.25;17.48;;;35.20;62.80;;;;;;5091583;28;20055;-68
2023/08/24 09:18:59;;;;;;;30.38;21.98;;;35.30;63.50;;;;;;5092574;28;20047;-69
2023/08/24 09:22:03;;;;;;;27.92;17.42;;;35.30;63.60;;;;;;5092384;28;20054;-69
2023/08/24 09:25:10;;;;;;;23.17;15.25;;;35.40;63.40;;;;;;5092623;28;20051;-69
2023/08/24 09:28:13;;;;;;;16.77;14.18;;;35.40;63.50;;;;;;5091731;28;20047;-68
2023/08/24 09:31:18;;;;;;;17.52;13.95;;;35.40;63.20;;;;;;5092285;28;20039;-68
2023/08/24 09:34:26;;;;;;;15.80;13.57;;;35.50;63.00;;;;;;5091576;28;20416;-67
2023/08/24 09:37:38;;;;;;;19.75;14.23;;;35.50;62.70;;;;;;5092479;28;20515;-69
2023/08/24 09:40:50;;;;;;;14.90;13.30;;;35.50;62.00;;;;;;5091485;28;20043;-68
2023/08/24 09:43:54;;;;;;;14.85;13.35;;;35.60;62.20;;;;;;5090401;28;20054;-69
2023/08/24 09:46:59;;;;;;;18.02;12.77;;;35.50;61.70;;;;;;5091372;28;20407;-68
2023/08/24 09:50:04;;;;;;;20.83;14.10;;;35.50;62.00;;;;;;5091323;28;20043;-68
2023/08/24 09:53:12;;;;;;;21.02;14.27;;;35.50;61.50;;;;;;5091473;28;20047;-69
2023/08/24 09:56:17;;;;;;;16.70;13.15;;;36.90;59.80;;;;;;5091134;28;20059;-70
2023/08/24 09:59:24;;;;;;;18.70;13.10;;;38.90;57.80;;;;;;5091703;28;20047;-71
2023/08/24 10:02:32;;;;;;;18.80;11.40;;;40.10;56.30;;;;;;5091804;28;20075;-72
2023/08/24 10:05:38;;;;;;;21.77;13.18;;;40.30;54.90;;;;;;5091261;28;20039;-69
2023/08/24 10:08:47;;;;;;;22.17;11.73;;;40.20;55.60;;;;;;5091436;28;20110;-69
2023/08/24 10:11:56;;;;;;;21.10;12.65;;;40.30;55.60;;;;;;5091607;28;20054;-72
2023/08/24 10:15:03;;;;;;;17.85;13.00;;;40.70;55.70;;;;;;5091494;28;20043;-71
2023/08/24 10:18:07;;;;;;;31.50;14.70;;;40.80;55.60;;;;;;5090662;28;20043;-71
2023/08/24 10:21:11;;;;;;;24.35;13.95;;;40.70;55.60;;;;;;5091564;28;20043;-73
2023/08/24 10:24:16;;;;;;;23.33;14.65;;;40.90;55.90;;;;;;5091422;28;20047;-69
2023/08/24 10:27:22;;;;;;;23.13;14.10;;;41.30;55.20;;;;;;5091764;28;20453;-69
2023/08/24 10:30:29;;;;;;;17.50;13.27;;;41.50;54.90;;;;;;5091538;28;20039;-72
2023/08/24 10:33:34;;;;;;;28.25;14.43;;;41.10;55.10;;;;;;5090587;28;20059;-70
2023/08/24 10:36:39;;;;;;;17.13;13.20;;;40.40;55.20;;;;;;5091261;28;20059;-71
2023/08/24 10:39:47;;;;;;;16.48;12.75;;;39.40;56.80;;;;;;5091110;28;20043;-71
2023/08/24 10:42:52;;;;;;;21.25;12.70;;;38.90;57.10;;;;;;5091243;28;20042;-70
2023/08/24 10:46:03;;;;;;;19.88;12.70;;;38.40;57.50;;;;;;5090446;28;20047;-71
2023/08/24 10:49:07;;;;;;;13.98;11.48;;;38.20;57.60;;;;;;5091484;28;20051;-71
2023/08/24 10:52:22;;;;;;;18.60;11.70;;;38.20;58.40;;;;;;5090561;28;20399;-69
2023/08/24 10:55:27;;;;;;;14.95;11.80;;;38.20;58.90;;;;;;5090782;28;20043;-70
2023/08/24 10:58:34;;;;;;;20.55;13.52;;;38.10;59.30;;;;;;5090974;28;20039;-69
2023/08/24 11:01:43;;;;;;;20.90;13.60;;;38.10;59.80;;;;;;5090787;28;20039;-71
2023/08/24 11:05:30;;;;;;;18.60;12.95;;;38.00;60.60;;;;;;5090251;28;20047;-70
2023/08/24 11:09:04;;;;;;;26.70;15.38;;;37.90;59.50;;;;;;5077064;28;20039;-70
2023/08/24 11:12:08;;;;;;;20.42;13.27;;;37.90;60.70;;;;;;5089339;28;20043;-71
2023/08/24 11:15:40;;;;;;;22.77;14.75;;;37.80;61.00;;;;;;5090885;28;20518;-70
2023/08/24 11:18:44;;;;;;;20.88;14.75;;;37.80;61.50;;;;;;5091121;28;20039;-70
2023/08/24 11:21:48;;;;;;;17.42;13.32;;;37.80;61.60;;;;;;5091016;28;20047;-71
2023/08/24 11:24:52;;;;;;;24.10;15.13;;;37.70;61.00;;;;;;5091126;28;20047;-72
2023/08/24 11:27:58;;;;;;;18.02;13.60;;;37.60;61.10;;;;;;5091082;28;20039;-72
2023/08/24 11:31:03;;;;;;;17.17;13.50;;;37.50;61.50;;;;;;5095158;28;20047;-71
2023/08/24 11:34:13;;;;;;;17.75;13.05;;;37.40;61.10;;;;;;5092774;28;20059;-71
2023/08/24 11:37:20;;;;;;;15.98;13.98;;;37.40;61.30;;;;;;5093042;28;20554;-72
2023/08/24 11:40:27;;;;;;;15.27;13.68;;;37.40;61.60;;;;;;5093942;28;20043;-72
2023/08/24 11:43:32;;;;;;;15.60;13.98;;;37.40;62.00;;;;;;5081177;28;20048;-72
2023/08/24 11:46:38;;;;;;;15.88;13.27;;;37.40;61.80;;;;;;5093688;28;20043;-71
2023/08/24 11:49:43;;;;;;;14.82;13.02;;;37.40;61.10;;;;;;5093417;28;20459;-70
2023/08/24 11:52:47;;;;;;;14.30;12.88;;;37.30;61.40;;;;;;5093529;28;20043;-71
2023/08/24 11:55:54;;;;;;;14.57;13.05;;;37.40;62.00;;;;;;5093778;28;20057;-71
2023/08/24 11:58:58;;;;;;;17.05;14.18;;;37.30;61.10;;;;;;5093812;28;20035;-71
2023/08/24 12:02:03;;;;;;;19.30;13.02;;;37.30;60.90;;;;;;5093844;28;20051;-71
2023/08/24 12:05:07;;;;;;;15.02;12.15;;;37.30;60.60;;;;;;5094454;28;20692;-71
2023/08/24 12:08:12;;;;;;;17.08;12.30;;;37.30;60.30;;;;;;5093357;28;20072;-69
2023/08/24 12:11:20;;;;;;;16.02;13.73;;;37.30;60.20;;;;;;5093488;28;20058;-70
2023/08/24 12:14:24;;;;;;;17.02;12.32;;;37.30;61.10;;;;;;5094212;28;20047;-70
2023/08/24 12:17:28;;;;;;;14.00;11.77;;;37.30;61.20;;;;;;5093309;28;20051;-69
2023/08/24 12:20:32;;;;;;;17.40;12.90;;;37.30;59.60;;;;;;5093909;28;20040;-72
2023/08/24 12:23:36;;;;;;;14.73;11.32;;;37.30;59.10;;;;;;5093964;28;20418;-71
2023/08/24 12:26:40;;;;;;;14.27;12.30;;;37.30;59.70;;;;;;5093827;28;20039;-70
2023/08/24 12:29:48;;;;;;;17.67;12.35;;;37.30;60.20;;;;;;5093920;28;20043;-70
2023/08/24 12:32:55;;;;;;;19.38;12.57;;;37.30;60.60;;;;;;5093601;28;20067;-70
2023/08/24 12:36:02;;;;;;;22.83;12.93;;;37.80;59.30;;;;;;5093568;28;20118;-69
2023/08/24 12:39:10;;;;;;;17.02;13.10;;;39.50;58.00;;;;;;5093835;28;20490;-68
2023/08/24 12:42:14;;;;;;;16.88;12.32;;;40.60;57.50;;;;;;5092473;28;20047;-69
2023/08/24 12:45:18;;;;;;;19.75;12.65;;;41.30;56.00;;;;;;5093609;28;20051;-68
2023/08/24 12:48:22;;;;;;;20.27;12.93;;;41.50;55.20;;;;;;5093274;28;20047;-69
2023/08/24 12:51:25;;;;;;;21.17;14.27;;;41.30;56.00;;;;;;5093664;28;20063;-72
2023/08/24 12:54:29;;;;;;;14.50;13.05;;;41.00;57.10;;;;;;5091948;28;20035;-71
2023/08/24 12:57:33;;;;;;;17.80;14.15;;;40.40;58.70;;;;;;5092542;28;20490;-71
2023/08/24 13:00:37;;;;;;;18.10;13.40;;;39.80;59.60;;;;;;5093310;28;20248;-71
2023/08/24 13:03:41;;;;;;;32.42;14.90;;;39.20;60.00;;;;;;5093138;28;20047;-70
2023/08/24 13:06:45;;;;;;;19.60;15.15;;;38.80;60.80;;;;;;5080947;28;20129;-71
2023/08/24 13:09:50;;;;;;;26.52;15.07;;;38.50;61.50;;;;;;5093099;28;20051;-72
2023/08/24 13:12:54;;;;;;;15.63;14.02;;;38.30;62.30;;;;;;5092883;28;20396;-72
2023/08/24 13:15:58;;;;;;;18.85;14.77;;;38.10;63.00;;;;;;5092948;28;20419;-72
2023/08/24 13:19:02;;;;;;;19.63;15.15;;;37.90;63.10;;;;;;5092759;28;20043;-72
2023/08/24 13:22:05;;;;;;;16.48;14.77;;;37.80;63.90;;;;;;5092777;28;20098;-71
2023/08/24 13:25:10;;;;;;;18.42;15.57;;;37.70;64.20;;;;;;5092511;28;20039;-70
2023/08/24 13:28:13;;;;;;;31.88;16.05;;;37.60;64.20;;;;;;5092507;28;20186;-71
2023/08/24 13:31:19;;;;;;;17.58;13.80;;;37.40;64.20;;;;;;5092593;28;20121;-71
2023/08/24 13:34:22;;;;;;;15.65;13.82;;;37.30;64.50;;;;;;5092249;28;20043;-71
2023/08/24 13:37:26;;;;;;;21.20;13.70;;;37.20;64.40;;;;;;5092570;28;20079;-72
2023/08/24 13:40:30;;;;;;;15.23;13.57;;;37.20;64.20;;;;;;5092511;28;20039;-71
2023/08/24 13:43:34;;;;;;;14.98;13.60;;;37.20;64.40;;;;;;5092341;28;20047;-71
2023/08/24 13:46:38;;;;;;;22.88;13.98;;;37.10;63.80;;;;;;5092258;28;20062;-71
2023/08/24 13:49:45;;;;;;;14.30;12.80;;;37.10;63.90;;;;;;5092522;28;20047;-71
2023/08/24 13:52:49;;;;;;;16.38;13.27;;;37.10;64.00;;;;;;5092201;28;20051;-72
2023/08/24 13:55:56;;;;;;;20.13;12.52;;;37.00;63.90;;;;;;5091411;28;20059;-68
2023/08/24 13:59:00;;;;;;;16.38;12.95;;;36.90;62.80;;;;;;5078857;28;20408;-68
2023/08/24 14:02:05;;;;;;;13.10;11.63;;;38.00;62.20;;;;;;5091605;28;20424;-69
2023/08/24 14:05:10;;;;;;;18.40;12.07;;;39.30;60.50;;;;;;5091871;28;20047;-69
2023/08/24 14:08:14;;;;;;;15.43;11.80;;;39.70;59.10;;;;;;5091873;28;20054;-69
2023/08/24 14:11:18;;;;;;;13.40;11.48;;;40.20;58.30;;;;;;5091980;28;20047;-70
2023/08/24 14:14:22;;;;;;;18.00;11.57;;;40.10;57.80;;;;;;5091878;28;20043;-71
2023/08/24 14:17:26;;;;;;;17.23;11.32;;;40.30;57.50;;;;;;5091949;28;20446;-69
2023/08/24 14:20:31;;;;;;;19.88;10.40;;;40.20;57.30;;;;;;5091509;28;20039;-70
2023/08/24 14:23:34;;;;;;;19.30;10.98;;;40.30;57.20;;;;;;5091720;28;20051;-68
2023/08/24 14:26:45;;;;;;;17.33;12.20;;;41.10;57.10;;;;;;5090684;28;20039;-70
2023/08/24 14:29:48;;;;;;;15.23;13.10;;;41.10;57.10;;;;;;5091016;28;20058;-69
2023/08/24 14:32:52;;;;;;;20.38;12.27;;;41.20;57.20;;;;;;5091026;28;20067;-72
2023/08/24 14:35:56;;;;;;;13.07;11.32;;;41.30;57.40;;;;;;5090543;28;20063;-70
2023/08/24 14:39:00;;;;;;;17.58;12.00;;;41.30;57.30;;;;;;5091630;28;20526;-69
2023/08/24 14:42:04;;;;;;;17.60;11.30;;;41.50;56.80;;;;;;5091527;28;20046;-67
2023/08/24 14:45:08;;;;;;;15.50;11.00;;;41.30;57.20;;;;;;5091305;28;20039;-69
2023/08/24 14:48:13;;;;;;;16.05;11.10;;;41.30;57.40;;;;;;5091689;28;20062;-70
2023/08/24 14:51:20;;;;;;;13.40;11.10;;;41.30;57.40;;;;;;5091560;28;20058;-66
2023/08/24 14:54:25;;;;;;;17.02;11.25;;;41.40;57.40;;;;;;5091748;28;20040;-71
2023/08/24 14:57:29;;;;;;;16.10;11.00;;;41.40;57.50;;;;;;5090775;28;20523;-66
2023/08/24 15:00:33;;;;;;;12.40;10.85;;;41.20;57.80;;;;;;5091568;28;20043;-71
2023/08/24 15:03:37;;;;;;;15.88;11.27;;;41.00;58.00;;;;;;5091587;28;20149;-71
2023/08/24 15:06:41;;;;;;;14.20;10.20;;;40.80;58.30;;;;;;5095436;28;20106;-69
2023/08/24 15:09:45;;;;;;;18.60;10.85;;;41.00;58.00;;;;;;5095827;28;20055;-70
2023/08/24 15:12:49;;;;;;;15.30;10.55;;;41.00;58.10;;;;;;5095122;28;20040;-70
2023/08/24 15:15:57;;;;;;;20.02;10.70;;;40.80;58.50;;;;;;5095356;28;20051;-68
2023/08/24 15:19:04;;;;;;;20.30;10.60;;;40.50;59.00;;;;;;5095435;28;20047;-70
2023/08/24 15:22:07;;;;;;;15.18;9.95;;;40.40;59.40;;;;;;5094470;28;20043;-69
2023/08/24 15:25:11;;;;;;;21.27;10.88;;;40.60;59.50;;;;;;5094970;28;20395;-69
2023/08/24 15:28:15;;;;;;;18.80;10.55;;;40.70;59.50;;;;;;5094406;28;20047;-68
2023/08/24 15:31:22;;;;;;;18.38;10.93;;;40.70;58.90;;;;;;5094984;28;20039;-71
2023/08/24 15:34:26;;;;;;;15.18;9.32;;;40.70;56.80;;;;;;5094811;28;20063;-69
2023/08/24 15:37:30;;;;;;;17.10;9.43;;;40.60;55.30;;;;;;5094787;28;20059;-65
2023/08/24 15:40:35;;;;;;;19.20;9.30;;;40.50;55.10;;;;;;5094686;28;20055;-66